Ds Blue Wave — A8YK2 — position and weather

sailwx.info

Track history (hours):
 
Tides and Currents Weather Stations Pressure Air Temp Water Temp Dewpoint Dewpoint Depression Visibility Wind Speed Wind Dir Waves Ship Positions

Ds Blue Wave

Last reported at 2017-Apr-25 08:31 UTC. Time now 2017-Apr-25 08:48 UTC.
Position N 34°39' E 135°16'.

Length 129 m; draft 6.4 m.

Type: Cargo ship. MMSI: 636092200.

Date/timePositionNaut miles runAvg speedWind from/ knotsBaromVisibWave heightAir tempDewpointWater temp
2017-Apr-25 08:31N 34°39' E 135°16'611.4
2017-Apr-25 08:00N 34°38' E 135°23'1 0.3
2017-Apr-25 04:48N 34°39' E 135°24'0 0.0
2017-Apr-25 04:30N 34°39' E 135°24'0 0.0
2017-Apr-25 01:42N 34°39' E 135°24'0 0.0
2017-Apr-25 01:24N 34°39' E 135°24'0 0.0
2017-Apr-25 00:48N 34°39' E 135°24'0 0.0
2017-Apr-25 00:18N 34°39' E 135°24'0 0.0
2017-Apr-24 23:48N 34°39' E 135°24'0 0.0
2017-Apr-24 23:24N 34°39' E 135°24'0 0.0
2017-Apr-24 23:00N 34°39' E 135°24'0 0.0
2017-Apr-24 22:24N 34°39' E 135°24'0 0.4
2017-Apr-24 22:00N 34°39' E 135°24'2 4.8
2017-Apr-24 21:30N 34°37' E 135°22'612.7
2017-Apr-24 21:00N 34°35' E 135°14'612.8
2017-Apr-24 20:30N 34°35' E 135°07'  
2017-Apr-18 11:58N 34°36' E 134°56'612.7
2017-Apr-18 11:30N 34°36' E 135°03'713.8
2017-Apr-18 11:00N 34°36' E 135°11'510.3
2017-Apr-18 10:30N 34°39' E 135°15'1 2.2
2017-Apr-18 09:53N 34°41' E 135°15'0 0.0
2017-Apr-18 09:23N 34°41' E 135°15'0 0.0
2017-Apr-18 08:59N 34°41' E 135°15'0 0.0
2017-Apr-18 08:29N 34°41' E 135°15'0 0.0
2017-Apr-18 07:53N 34°41' E 135°15'0 0.0
2017-Apr-18 07:29N 34°41' E 135°15'0 0.0
2017-Apr-18 06:59N 34°41' E 135°15'0 0.0
2017-Apr-18 06:23N 34°41' E 135°15'0 0.0
2017-Apr-18 05:59N 34°41' E 135°15'0 0.0
2017-Apr-18 05:23N 34°41' E 135°15'0 0.0
2017-Apr-18 04:59N 34°41' E 135°15'0 0.0
2017-Apr-18 04:29N 34°41' E 135°15'0 0.0
2017-Apr-18 03:59N 34°41' E 135°15'0 0.0
2017-Apr-18 03:29N 34°41' E 135°15'0 0.0
2017-Apr-18 02:59N 34°41' E 135°15'0 0.0
2017-Apr-18 02:17N 34°41' E 135°15'0 0.0
2017-Apr-18 01:59N 34°41' E 135°15'0 0.0
2017-Apr-18 01:29N 34°41' E 135°15'0 0.0
2017-Apr-18 00:59N 34°41' E 135°15'0 0.0
2017-Apr-18 00:29N 34°41' E 135°15'1 1.4
2017-Apr-18 00:00N 34°40' E 135°15'3 5.7
2017-Apr-17 23:30N 34°37' E 135°16'1 2.2
2017-Apr-17 22:55N 34°37' E 135°15'0 0.1
2017-Apr-17 22:25N 34°37' E 135°15'1 1.4
2017-Apr-17 22:00N 34°37' E 135°15'510.6
2017-Apr-17 21:30N 34°39' E 135°21'2 2.7
2017-Apr-17 20:46N 34°39' E 135°24'0 0.0
2017-Apr-17 20:16N 34°39' E 135°24'0 0.0
2017-Apr-17 19:58N 34°39' E 135°24'0 0.0
2017-Apr-17 19:22N 34°39' E 135°24'0 0.0
2017-Apr-17 18:58N 34°39' E 135°24'0 0.0
2017-Apr-17 18:28N 34°39' E 135°24'0 0.0
2017-Apr-17 17:40N 34°39' E 135°24'0 0.0
2017-Apr-17 17:10N 34°39' E 135°24'0 0.0
2017-Apr-17 16:52N 34°39' E 135°24'0 0.0
2017-Apr-17 16:28N 34°39' E 135°24'0 0.0
2017-Apr-17 15:52N 34°39' E 135°24'0 0.0
2017-Apr-17 15:28N 34°39' E 135°24'0 0.0
2017-Apr-17 14:58N 34°39' E 135°24'0 0.0
2017-Apr-17 13:52N 34°39' E 135°24'0 0.0
2017-Apr-17 12:40N 34°39' E 135°24'0 0.0
2017-Apr-17 12:22N 34°39' E 135°24'0 0.0
2017-Apr-17 11:52N 34°39' E 135°24'0 0.0
2017-Apr-17 11:28N 34°39' E 135°24'0 0.0
2017-Apr-17 10:58N 34°39' E 135°24'0 0.0
2017-Apr-17 10:04N 34°39' E 135°24'0 0.1
2017-Apr-17 09:58N 34°39' E 135°24'0 0.0
2017-Apr-17 09:22N 34°39' E 135°24'0 0.0
2017-Apr-17 08:58N 34°39' E 135°24'0 0.0
2017-Apr-17 08:28N 34°39' E 135°24'0 0.0
2017-Apr-17 06:52N 34°39' E 135°24'0 0.0
2017-Apr-17 04:58N 34°39' E 135°24'0 0.0
2017-Apr-17 03:52N 34°39' E 135°24'0 0.0
2017-Apr-17 03:22N 34°39' E 135°24'0 0.0
2017-Apr-17 02:58N 34°39' E 135°24'0 0.0
2017-Apr-17 02:28N 34°39' E 135°24'0 0.0
2017-Apr-17 01:58N 34°39' E 135°24'0 0.0
2017-Apr-17 01:28N 34°39' E 135°24'0 0.0
2017-Apr-17 00:58N 34°39' E 135°24'0 0.0
2017-Apr-17 00:28N 34°39' E 135°24'0 0.0
2017-Apr-16 23:22N 34°39' E 135°24'0 0.0
2017-Apr-16 22:58N 34°39' E 135°24'0 0.0
2017-Apr-16 22:28N 34°39' E 135°24'0 0.3
2017-Apr-16 21:59N 34°39' E 135°24'3 5.3
2017-Apr-16 21:29N 34°37' E 135°21'511.2
2017-Apr-16 21:00N 34°36' E 135°15'611.7
2017-Apr-16 20:30N 34°35' E 135°08'  
Track history (hours):
 
Tides and Currents Weather Stations Pressure Air Temp Water Temp Dewpoint Dewpoint Depression Visibility Wind Speed Wind Dir Waves Ship Positions

Ds Blue Wave

Last reported at 2017-Apr-25 08:31 UTC. Time now 2017-Apr-25 08:48 UTC.
Position N 34°39' E 135°16'.

Length 129 m; draft 6.4 m.

Type: Cargo ship. MMSI: 636092200.

Date/timePositionNaut miles runAvg speedWind from/ knotsBaromVisibWave heightAir tempDewpointWater temp
2017-Apr-25 08:31N 34°39' E 135°16'611.4
2017-Apr-25 08:00N 34°38' E 135°23'1 0.3
2017-Apr-25 04:48N 34°39' E 135°24'0 0.0
2017-Apr-25 04:30N 34°39' E 135°24'0 0.0
2017-Apr-25 01:42N 34°39' E 135°24'0 0.0
2017-Apr-25 01:24N 34°39' E 135°24'0 0.0
2017-Apr-25 00:48N 34°39' E 135°24'0 0.0
2017-Apr-25 00:18N 34°39' E 135°24'0 0.0
2017-Apr-24 23:48N 34°39' E 135°24'0 0.0
2017-Apr-24 23:24N 34°39' E 135°24'0 0.0
2017-Apr-24 23:00N 34°39' E 135°24'0 0.0
2017-Apr-24 22:24N 34°39' E 135°24'0 0.4
2017-Apr-24 22:00N 34°39' E 135°24'2 4.8
2017-Apr-24 21:30N 34°37' E 135°22'612.7
2017-Apr-24 21:00N 34°35' E 135°14'612.8
2017-Apr-24 20:30N 34°35' E 135°07'  
2017-Apr-18 11:58N 34°36' E 134°56'612.7
2017-Apr-18 11:30N 34°36' E 135°03'713.8
2017-Apr-18 11:00N 34°36' E 135°11'510.3
2017-Apr-18 10:30N 34°39' E 135°15'1 2.2
2017-Apr-18 09:53N 34°41' E 135°15'0 0.0
2017-Apr-18 09:23N 34°41' E 135°15'0 0.0
2017-Apr-18 08:59N 34°41' E 135°15'0 0.0
2017-Apr-18 08:29N 34°41' E 135°15'0 0.0
2017-Apr-18 07:53N 34°41' E 135°15'0 0.0
2017-Apr-18 07:29N 34°41' E 135°15'0 0.0
2017-Apr-18 06:59N 34°41' E 135°15'0 0.0
2017-Apr-18 06:23N 34°41' E 135°15'0 0.0
2017-Apr-18 05:59N 34°41' E 135°15'0 0.0
2017-Apr-18 05:23N 34°41' E 135°15'0 0.0
2017-Apr-18 04:59N 34°41' E 135°15'0 0.0
2017-Apr-18 04:29N 34°41' E 135°15'0 0.0
2017-Apr-18 03:59N 34°41' E 135°15'0 0.0
2017-Apr-18 03:29N 34°41' E 135°15'0 0.0
2017-Apr-18 02:59N 34°41' E 135°15'0 0.0
2017-Apr-18 02:17N 34°41' E 135°15'0 0.0
2017-Apr-18 01:59N 34°41' E 135°15'0 0.0
2017-Apr-18 01:29N 34°41' E 135°15'0 0.0
2017-Apr-18 00:59N 34°41' E 135°15'0 0.0
2017-Apr-18 00:29N 34°41' E 135°15'1 1.4
2017-Apr-18 00:00N 34°40' E 135°15'3 5.7
2017-Apr-17 23:30N 34°37' E 135°16'1 2.2
2017-Apr-17 22:55N 34°37' E 135°15'0 0.1
2017-Apr-17 22:25N 34°37' E 135°15'1 1.4
2017-Apr-17 22:00N 34°37' E 135°15'510.6
2017-Apr-17 21:30N 34°39' E 135°21'2 2.7
2017-Apr-17 20:46N 34°39' E 135°24'0 0.0
2017-Apr-17 20:16N 34°39' E 135°24'0 0.0
2017-Apr-17 19:58N 34°39' E 135°24'0 0.0
2017-Apr-17 19:22N 34°39' E 135°24'0 0.0
2017-Apr-17 18:58N 34°39' E 135°24'0 0.0
2017-Apr-17 18:28N 34°39' E 135°24'0 0.0
2017-Apr-17 17:40N 34°39' E 135°24'0 0.0
2017-Apr-17 17:10N 34°39' E 135°24'0 0.0
2017-Apr-17 16:52N 34°39' E 135°24'0 0.0
2017-Apr-17 16:28N 34°39' E 135°24'0 0.0
2017-Apr-17 15:52N 34°39' E 135°24'0 0.0
2017-Apr-17 15:28N 34°39' E 135°24'0 0.0
2017-Apr-17 14:58N 34°39' E 135°24'0 0.0
2017-Apr-17 13:52N 34°39' E 135°24'0 0.0
2017-Apr-17 12:40N 34°39' E 135°24'0 0.0
2017-Apr-17 12:22N 34°39' E 135°24'0 0.0
2017-Apr-17 11:52N 34°39' E 135°24'0 0.0
2017-Apr-17 11:28N 34°39' E 135°24'0 0.0
2017-Apr-17 10:58N 34°39' E 135°24'0 0.0
2017-Apr-17 10:04N 34°39' E 135°24'0 0.1
2017-Apr-17 09:58N 34°39' E 135°24'0 0.0
2017-Apr-17 09:22N 34°39' E 135°24'0 0.0
2017-Apr-17 08:58N 34°39' E 135°24'0 0.0
2017-Apr-17 08:28N 34°39' E 135°24'0 0.0
2017-Apr-17 06:52N 34°39' E 135°24'0 0.0
2017-Apr-17 04:58N 34°39' E 135°24'0 0.0
2017-Apr-17 03:52N 34°39' E 135°24'0 0.0
2017-Apr-17 03:22N 34°39' E 135°24'0 0.0
2017-Apr-17 02:58N 34°39' E 135°24'0 0.0
2017-Apr-17 02:28N 34°39' E 135°24'0 0.0
2017-Apr-17 01:58N 34°39' E 135°24'0 0.0
2017-Apr-17 01:28N 34°39' E 135°24'0 0.0
2017-Apr-17 00:58N 34°39' E 135°24'0 0.0
2017-Apr-17 00:28N 34°39' E 135°24'0 0.0
2017-Apr-16 23:22N 34°39' E 135°24'0 0.0
2017-Apr-16 22:58N 34°39' E 135°24'0 0.0
2017-Apr-16 22:28N 34°39' E 135°24'0 0.3
2017-Apr-16 21:59N 34°39' E 135°24'3 5.3
2017-Apr-16 21:29N 34°37' E 135°21'511.2
2017-Apr-16 21:00N 34°36' E 135°15'611.7
2017-Apr-16 20:30N 34°35' E 135°08'  

Dump ship's entire track history